Time;durP1;ratioP1;P1;durP2;ratioP2;P2;SDS_P1;SDS_P2;PMS_P1;PMS_P2;Temp;Humidity;BMP_temperature;BMP_pressure;BME280_temperature;BME280_humidity;BME280_pressure;Samples;Min_cycle;Max_cycle;Signal;HPM_P1;HPM_P2
2022/08/10 00:01:08;;;;;;;4.95;2.75;;;24.90;89.40;;;;;;5066403;28;20048;-72
2022/08/10 00:03:34;;;;;;;8.38;3.00;;;24.90;90.20;;;;;;5067008;28;20055;-72
2022/08/10 00:06:00;;;;;;;6.90;2.55;;;24.70;90.10;;;;;;5060526;28;20036;-72
2022/08/10 00:08:25;;;;;;;6.55;1.85;;;24.60;90.30;;;;;;5067395;28;20053;-72
2022/08/10 00:10:55;;;;;;;5.13;2.35;;;24.50;90.10;;;;;;5055598;28;20051;-72
2022/08/10 00:13:21;;;;;;;4.05;2.38;;;24.50;90.10;;;;;;5060024;28;20036;-72
2022/08/10 00:15:47;;;;;;;4.50;2.63;;;24.50;90.30;;;;;;5054590;28;20029;-72
2022/08/10 00:18:13;;;;;;;9.75;2.65;;;24.50;90.30;;;;;;5065410;28;20033;-72
2022/08/10 00:20:38;;;;;;;5.07;2.63;;;24.50;90.60;;;;;;5066343;28;20123;-73
2022/08/10 00:23:04;;;;;;;4.45;2.35;;;24.50;90.50;;;;;;5059220;28;20039;-72
2022/08/10 00:25:30;;;;;;;5.75;3.10;;;24.50;90.90;;;;;;5060182;28;20483;-72
2022/08/10 00:27:56;;;;;;;8.15;2.45;;;24.30;90.40;;;;;;5055547;28;20025;-72
2022/08/10 00:30:21;;;;;;;4.55;2.00;;;24.30;90.30;;;;;;5070192;28;20021;-72
2022/08/10 00:32:47;;;;;;;4.97;2.35;;;24.40;89.90;;;;;;5051409;28;20440;-72
2022/08/10 00:35:13;;;;;;;4.07;2.25;;;24.40;89.70;;;;;;5059886;28;20024;-72
2022/08/10 00:37:38;;;;;;;3.72;2.45;;;24.20;90.20;;;;;;5063029;28;20021;-72
2022/08/10 00:40:06;;;;;;;6.10;2.55;;;24.00;90.20;;;;;;5069832;28;20089;-72
2022/08/10 00:42:32;;;;;;;4.72;2.00;;;24.00;90.20;;;;;;5061782;28;20025;-72
2022/08/10 00:44:58;;;;;;;4.15;1.90;;;23.90;90.30;;;;;;5065760;28;20417;-72
2022/08/10 00:47:23;;;;;;;4.07;2.20;;;23.90;90.40;;;;;;5066599;28;20031;-72
2022/08/10 00:49:49;;;;;;;8.15;2.30;;;23.90;90.30;;;;;;5069931;28;20113;-72
2022/08/10 00:52:18;;;;;;;5.72;2.08;;;23.90;90.40;;;;;;5064045;28;20498;-72
2022/08/10 00:54:46;;;;;;;4.45;2.38;;;23.90;90.40;;;;;;5068669;28;20486;-72
2022/08/10 00:57:13;;;;;;;4.05;2.30;;;23.80;90.40;;;;;;5062781;28;20071;-72
2022/08/10 00:59:40;;;;;;;4.18;2.05;;;23.80;90.90;;;;;;5066291;28;20091;-72
2022/08/10 01:02:06;;;;;;;5.43;2.45;;;23.60;91.10;;;;;;5071621;28;20044;-72
2022/08/10 01:04:31;;;;;;;4.90;2.17;;;23.60;90.80;;;;;;5058083;28;20042;-72
2022/08/10 01:07:18;;;;;;;3.88;2.22;;;23.60;90.80;;;;;;5068498;28;20458;-72
2022/08/10 01:09:58;;;;;;;6.65;2.30;;;23.60;90.60;;;;;;5067338;28;20460;-72
2022/08/10 01:12:26;;;;;;;3.55;1.73;;;23.20;91.20;;;;;;5056190;28;20033;-72
2022/08/10 01:15:09;;;;;;;4.70;2.58;;;23.20;91.30;;;;;;5067138;28;20025;-72
2022/08/10 01:18:03;;;;;;;5.53;2.00;;;23.20;91.20;;;;;;5072402;28;20486;-72
2022/08/10 01:20:46;;;;;;;4.80;1.67;;;22.90;91.80;;;;;;5059838;28;20068;-72
2022/08/10 01:23:39;;;;;;;4.97;2.50;;;22.70;91.90;;;;;;5069041;28;20028;-72
2022/08/10 01:26:23;;;;;;;7.05;2.20;;;22.50;92.20;;;;;;5070076;28;20128;-72
2022/08/10 01:29:27;;;;;;;3.63;2.15;;;22.70;91.80;;;;;;5071426;28;20043;-72
2022/08/10 01:31:59;;;;;;;5.60;2.50;;;22.80;91.60;;;;;;5072132;28;20036;-72
2022/08/10 01:34:33;;;;;;;6.55;2.33;;;22.90;91.40;;;;;;5062154;28;20390;-72
2022/08/10 01:37:07;;;;;;;3.22;1.80;;;23.00;91.20;;;;;;5065710;28;20123;-72
2022/08/10 01:39:38;;;;;;;3.75;1.83;;;23.20;90.50;;;;;;5071007;28;20032;-72
2022/08/10 01:42:05;;;;;;;9.68;2.25;;;23.40;90.20;;;;;;5070279;28;20057;-72
2022/08/10 01:44:43;;;;;;;4.13;1.67;;;23.60;88.40;;;;;;5070069;28;20024;-72
2022/08/10 01:50:03;;;;;;;4.10;1.77;;;23.60;89.60;;;;;;5069135;28;20039;-72
2022/08/10 01:52:30;;;;;;;3.83;1.80;;;23.50;88.80;;;;;;5063103;28;20064;-72
2022/08/10 01:54:57;;;;;;;3.38;1.88;;;23.50;89.50;;;;;;5060523;28;20043;-72
2022/08/10 01:57:26;;;;;;;4.22;1.90;;;23.50;88.80;;;;;;5069565;28;20051;-72
2022/08/10 01:59:55;;;;;;;5.53;1.90;;;23.20;90.00;;;;;;5060454;28;20525;-72
2022/08/10 02:02:22;;;;;;;5.53;2.03;;;23.30;89.30;;;;;;5064742;28;20032;-72
2022/08/10 02:04:51;;;;;;;7.93;2.15;;;23.10;90.00;;;;;;5070922;28;20033;-72
2022/08/10 02:07:20;;;;;;;6.43;1.95;;;23.00;90.20;;;;;;5062110;28;20032;-72
2022/08/10 02:09:49;;;;;;;3.65;1.92;;;22.90;90.40;;;;;;5060488;28;20052;-72
2022/08/10 02:12:20;;;;;;;4.53;2.33;;;22.80;90.30;;;;;;5067975;28;20044;-72
2022/08/10 02:15:03;;;;;;;4.47;1.85;;;22.70;90.50;;;;;;5055681;28;20039;-72
2022/08/10 02:17:41;;;;;;;5.07;1.90;;;23.00;89.50;;;;;;5064590;28;20571;-72
2022/08/10 02:20:11;;;;;;;3.88;1.48;;;23.10;89.20;;;;;;5051866;28;20384;-72
2022/08/10 02:22:38;;;;;;;2.97;1.50;;;23.10;89.50;;;;;;5067851;28;20029;-72
2022/08/10 02:25:06;;;;;;;3.78;1.77;;;22.90;89.20;;;;;;5057361;28;20662;-72
2022/08/10 02:27:33;;;;;;;4.82;1.70;;;22.90;89.60;;;;;;5067263;28;20036;-72
2022/08/10 02:30:00;;;;;;;4.00;2.38;;;23.00;89.50;;;;;;5054970;28;20039;-72
2022/08/10 02:32:27;;;;;;;4.70;1.95;;;23.10;88.80;;;;;;5062625;28;20035;-72
2022/08/10 02:34:56;;;;;;;3.45;2.25;;;23.10;88.50;;;;;;5069259;28;20063;-72
2022/08/10 02:37:25;;;;;;;5.63;1.88;;;23.10;88.80;;;;;;5061430;28;20047;-72
2022/08/10 02:39:51;;;;;;;4.00;1.80;;;23.10;88.60;;;;;;5057817;28;20045;-72
2022/08/10 02:42:38;;;;;;;3.13;1.50;;;23.20;87.90;;;;;;5063852;28;20810;-72
2022/08/10 02:45:18;;;;;;;7.55;1.77;;;23.10;88.30;;;;;;5056775;28;20029;-72
2022/08/10 02:47:51;;;;;;;6.45;2.58;;;23.10;88.80;;;;;;5067412;28;20036;-72
2022/08/10 02:50:21;;;;;;;3.35;1.80;;;23.00;88.50;;;;;;5063493;28;20039;-72
2022/08/10 02:52:52;;;;;;;2.92;1.48;;;22.90;88.90;;;;;;5056647;28;20569;-72
2022/08/10 02:55:30;;;;;;;4.25;1.65;;;23.00;88.90;;;;;;5070214;28;20103;-72
2022/08/10 02:58:01;;;;;;;4.10;1.77;;;22.90;89.10;;;;;;5059944;28;20035;-72
2022/08/10 03:00:27;;;;;;;4.50;2.10;;;22.90;89.10;;;;;;5067372;28;20049;-72
2022/08/10 03:02:55;;;;;;;3.08;1.65;;;22.90;88.80;;;;;;5061757;28;20532;-72
2022/08/10 03:05:21;;;;;;;3.90;1.83;;;22.90;88.40;;;;;;5060954;28;20024;-72
2022/08/10 03:08:16;;;;;;;5.90;2.00;;;22.90;88.90;;;;;;5064639;28;20036;-72
2022/08/10 03:10:44;;;;;;;3.03;1.75;;;22.80;89.10;;;;;;5040621;28;20583;-72
2022/08/10 03:13:11;;;;;;;3.38;1.88;;;22.90;89.00;;;;;;5049513;28;20039;-72
2022/08/10 03:15:38;;;;;;;6.03;2.13;;;23.00;89.30;;;;;;5054365;28;20035;-72
2022/08/10 03:18:05;;;;;;;4.25;1.73;;;22.90;88.60;;;;;;5055760;28;20047;-72
2022/08/10 03:20:35;;;;;;;4.47;1.75;;;23.00;88.90;;;;;;5044142;28;20041;-72
2022/08/10 03:23:04;;;;;;;4.10;1.52;;;22.90;88.60;;;;;;5053269;28;20132;-72
2022/08/10 03:25:31;;;;;;;9.63;2.30;;;22.90;88.80;;;;;;5051690;28;20028;-72
2022/08/10 03:27:58;;;;;;;2.85;1.35;;;22.70;89.10;;;;;;5058772;28;20394;-72
2022/08/10 03:30:24;;;;;;;5.28;2.63;;;22.70;89.20;;;;;;5051201;28;20024;-72
2022/08/10 03:32:52;;;;;;;4.70;1.90;;;22.60;89.40;;;;;;5054095;28;20552;-72
2022/08/10 03:35:19;;;;;;;3.50;1.58;;;22.60;89.80;;;;;;5059714;28;20037;-72
2022/08/10 03:37:44;;;;;;;4.03;1.70;;;22.50;89.60;;;;;;5053007;28;20086;-72
2022/08/10 03:40:10;;;;;;;4.97;1.55;;;22.50;89.50;;;;;;5048863;28;20041;-72
2022/08/10 03:42:38;;;;;;;4.38;1.77;;;22.50;89.60;;;;;;5059077;28;20198;-72
2022/08/10 03:45:05;;;;;;;7.50;1.88;;;22.40;89.90;;;;;;5057010;28;20086;-72
2022/08/10 03:47:34;;;;;;;4.32;2.08;;;22.30;90.00;;;;;;5055591;28;20032;-72
2022/08/10 03:50:03;;;;;;;2.97;1.83;;;22.30;90.30;;;;;;5055977;28;20111;-72
2022/08/10 03:52:29;;;;;;;3.85;2.22;;;22.30;90.20;;;;;;5059277;28;20734;-72
2022/08/10 03:54:56;;;;;;;5.50;1.75;;;22.20;90.30;;;;;;5057020;28;20094;-72
2022/08/10 03:57:22;;;;;;;4.05;1.88;;;22.20;90.30;;;;;;5052818;28;20086;-72
2022/08/10 03:59:49;;;;;;;5.05;1.55;;;22.10;90.20;;;;;;5058411;28;20764;-72
2022/08/10 04:02:15;;;;;;;5.03;1.98;;;22.10;90.30;;;;;;5058805;28;20025;-72
2022/08/10 04:04:41;;;;;;;3.53;1.60;;;22.10;90.40;;;;;;5063253;28;20028;-72
2022/08/10 04:07:07;;;;;;;5.18;2.00;;;22.00;90.40;;;;;;5060399;28;20036;-72
2022/08/10 04:09:35;;;;;;;3.60;1.40;;;22.00;90.40;;;;;;5047352;28;20103;-72
2022/08/10 04:12:01;;;;;;;3.83;1.67;;;22.00;90.20;;;;;;5061713;28;20043;-72
2022/08/10 04:14:27;;;;;;;3.78;1.88;;;21.80;90.40;;;;;;5060854;28;20036;-72
2022/08/10 04:16:52;;;;;;;3.20;1.52;;;21.80;90.40;;;;;;5065696;28;20021;-72
2022/08/10 04:19:19;;;;;;;2.83;1.55;;;21.90;90.50;;;;;;5060872;28;20501;-72
2022/08/10 04:21:53;;;;;;;5.60;1.85;;;21.80;90.70;;;;;;5059407;28;20025;-72
2022/08/10 04:24:23;;;;;;;3.30;1.90;;;21.70;91.00;;;;;;5058866;28;20028;-72
2022/08/10 04:26:49;;;;;;;5.18;1.27;;;21.30;91.60;;;;;;5059559;28;20029;-72
2022/08/10 04:29:14;;;;;;;3.08;1.65;;;21.10;91.90;;;;;;5064156;28;20033;-72
2022/08/10 04:31:43;;;;;;;3.42;2.05;;;21.10;92.10;;;;;;5060260;28;20031;-72
2022/08/10 04:34:09;;;;;;;3.88;1.45;;;21.00;91.80;;;;;;5055646;28;20048;-72
2022/08/10 04:36:35;;;;;;;5.00;1.90;;;21.10;91.60;;;;;;5056877;28;20619;-72
2022/08/10 04:39:01;;;;;;;2.78;1.67;;;21.20;91.50;;;;;;5065885;28;20039;-72
2022/08/10 04:41:27;;;;;;;3.60;2.03;;;21.30;91.40;;;;;;5064567;28;20039;-72
2022/08/10 04:43:53;;;;;;;3.75;1.70;;;21.40;91.40;;;;;;5064920;28;20039;-72
2022/08/10 04:46:18;;;;;;;4.43;2.33;;;21.40;91.60;;;;;;5063506;28;20100;-72
2022/08/10 04:48:44;;;;;;;4.75;2.40;;;21.50;91.30;;;;;;5047828;28;20032;-72
2022/08/10 04:51:15;;;;;;;4.90;1.60;;;21.50;91.30;;;;;;5055348;28;20136;-72
2022/08/10 04:53:40;;;;;;;3.60;1.52;;;21.60;91.60;;;;;;5059724;28;21128;-72
2022/08/10 04:56:07;;;;;;;3.65;1.73;;;21.50;91.70;;;;;;5051758;28;20116;-72
2022/08/10 04:58:36;;;;;;;4.90;2.00;;;21.30;91.90;;;;;;5065642;28;20076;-72
2022/08/10 05:01:03;;;;;;;5.60;1.90;;;21.20;92.00;;;;;;5061189;28;20498;-72
2022/08/10 05:03:28;;;;;;;4.13;1.77;;;21.10;92.20;;;;;;5066046;28;20731;-72
2022/08/10 05:05:54;;;;;;;3.28;1.77;;;20.90;92.30;;;;;;5064163;28;20037;-72
2022/08/10 05:08:20;;;;;;;3.63;1.85;;;21.00;92.40;;;;;;5064918;28;20056;-72
2022/08/10 05:10:45;;;;;;;5.93;2.03;;;21.00;92.40;;;;;;5060394;28;20815;-72
2022/08/10 05:13:11;;;;;;;6.22;2.10;;;21.00;92.60;;;;;;5057079;28;20083;-72
2022/08/10 05:15:36;;;;;;;4.63;2.00;;;21.20;92.10;;;;;;5059962;28;20032;-72
2022/08/10 05:18:02;;;;;;;4.88;2.25;;;21.20;92.40;;;;;;5050910;28;20028;-72
2022/08/10 05:20:28;;;;;;;3.78;1.98;;;21.30;92.10;;;;;;5059911;28;20032;-72
2022/08/10 05:22:54;;;;;;;3.80;1.77;;;21.30;92.40;;;;;;5056623;28;20036;-72
2022/08/10 05:25:19;;;;;;;5.40;1.80;;;21.10;92.70;;;;;;5060533;28;20037;-72
2022/08/10 05:27:46;;;;;;;3.92;1.90;;;21.00;92.90;;;;;;5065079;28;20281;-73
2022/08/10 05:30:15;;;;;;;3.20;1.52;;;21.00;93.40;;;;;;5057452;28;20029;-73
2022/08/10 05:32:41;;;;;;;3.97;1.63;;;21.00;93.60;;;;;;5064524;28;20037;-74
2022/08/10 05:35:07;;;;;;;4.25;1.63;;;20.90;93.60;;;;;;5053523;28;20039;-74
2022/08/10 05:37:33;;;;;;;4.40;2.22;;;21.10;92.90;;;;;;5056223;28;20032;-73
2022/08/10 05:40:02;;;;;;;4.82;2.20;;;21.30;92.50;;;;;;5048454;28;20064;-72
2022/08/10 05:42:28;;;;;;;3.22;1.60;;;21.60;92.00;;;;;;5062652;28;20420;-73
2022/08/10 05:44:55;;;;;;;4.07;1.90;;;21.70;91.80;;;;;;5063461;28;20041;-73
2022/08/10 05:47:20;;;;;;;5.60;1.90;;;21.70;92.30;;;;;;5055143;28;20028;-73
2022/08/10 05:49:47;;;;;;;6.03;2.10;;;21.80;92.10;;;;;;5061884;28;20040;-73
2022/08/10 05:52:13;;;;;;;5.05;1.80;;;21.90;91.70;;;;;;5061743;28;20020;-73
2022/08/10 05:54:39;;;;;;;3.85;2.13;;;22.00;91.60;;;;;;5058185;28;20090;-73
2022/08/10 05:57:05;;;;;;;5.38;2.20;;;22.00;92.00;;;;;;5061224;28;20032;-74
2022/08/10 05:59:33;;;;;;;7.97;2.15;;;22.00;92.00;;;;;;5050513;28;20051;-73
2022/08/10 06:02:07;;;;;;;5.00;2.47;;;22.10;91.80;;;;;;5049106;28;20032;-74
2022/08/10 06:04:37;;;;;;;5.15;1.80;;;22.20;92.20;;;;;;5053765;28;20115;-73
2022/08/10 06:07:07;;;;;;;4.03;2.25;;;22.30;92.30;;;;;;5046570;28;20025;-74
2022/08/10 06:09:35;;;;;;;7.63;2.30;;;22.40;92.40;;;;;;5045430;28;20049;-73
2022/08/10 06:12:04;;;;;;;4.57;2.60;;;22.50;92.80;;;;;;5045599;28;20091;-74
2022/08/10 06:17:17;;;;;;;7.03;3.60;;;22.70;93.60;;;;;;5051809;28;20386;-73
2022/08/10 06:19:43;;;;;;;6.22;2.17;;;22.80;94.50;;;;;;5048808;28;20607;-73
2022/08/10 06:22:10;;;;;;;4.10;1.95;;;22.70;93.90;;;;;;5048664;28;20051;-74
2022/08/10 06:24:39;;;;;;;6.82;2.50;;;22.80;94.20;;;;;;5059973;28;20067;-73
2022/08/10 06:27:08;;;;;;;3.85;2.28;;;22.90;94.40;;;;;;5047169;28;20025;-73
2022/08/10 06:29:39;;;;;;;4.65;2.08;;;22.90;94.10;;;;;;5052841;28;20029;-73
2022/08/10 06:32:07;;;;;;;5.38;2.15;;;23.10;94.50;;;;;;5053805;28;20458;-73
2022/08/10 06:34:38;;;;;;;5.75;2.28;;;23.10;94.40;;;;;;5053832;28;20032;-73
2022/08/10 06:37:06;;;;;;;5.05;2.28;;;23.30;95.30;;;;;;5048316;28;20029;-73
2022/08/10 06:39:32;;;;;;;4.70;2.50;;;23.30;94.80;;;;;;5050280;28;20064;-73
2022/08/10 06:42:22;;;;;;;4.22;2.53;;;23.40;94.70;;;;;;5050607;28;20025;-72
2022/08/10 06:44:57;;;;;;;7.10;2.25;;;23.70;94.70;;;;;;5054644;28;20510;-72
2022/08/10 06:47:29;;;;;;;5.65;2.10;;;23.60;94.20;;;;;;5046681;28;20057;-72
2022/08/10 06:49:58;;;;;;;5.57;2.75;;;23.60;94.20;;;;;;5047293;28;20475;-72
2022/08/10 06:52:25;;;;;;;5.38;2.90;;;23.70;94.60;;;;;;5056632;28;20085;-72
2022/08/10 06:54:54;;;;;;;13.13;3.30;;;23.70;94.50;;;;;;5042245;28;20028;-74
2022/08/10 06:57:23;;;;;;;4.32;2.53;;;23.80;94.70;;;;;;5055017;28;20041;-74
2022/08/10 06:59:52;;;;;;;5.28;2.58;;;23.60;95.00;;;;;;5056869;28;20044;-74
2022/08/10 07:02:25;;;;;;;5.75;2.95;;;23.50;95.20;;;;;;5050007;28;20083;-74
2022/08/10 07:05:01;;;;;;;6.85;2.90;;;23.40;94.80;;;;;;5050762;28;20033;-74
2022/08/10 07:07:29;;;;;;;5.60;2.97;;;23.50;95.20;;;;;;5050740;28;20661;-74
2022/08/10 07:09:57;;;;;;;4.80;2.53;;;24.00;95.40;;;;;;5054904;28;20399;-74
2022/08/10 07:12:24;;;;;;;8.00;3.33;;;24.50;95.20;;;;;;5053866;28;20068;-74
2022/08/10 07:14:51;;;;;;;5.88;2.97;;;24.50;94.40;;;;;;5059045;28;20032;-74
2022/08/10 07:17:21;;;;;;;7.07;2.90;;;25.10;93.50;;;;;;5049529;28;20033;-74
2022/08/10 07:19:50;;;;;;;5.03;2.55;;;27.00;92.00;;;;;;5061891;28;20565;-74
2022/08/10 07:22:17;;;;;;;5.38;3.30;;;27.30;91.20;;;;;;5062437;28;20032;-74
2022/08/10 07:24:44;;;;;;;5.22;2.90;;;26.90;90.50;;;;;;5062152;28;20028;-74
2022/08/10 07:27:11;;;;;;;6.10;3.42;;;26.30;91.10;;;;;;5066309;28;20047;-74
2022/08/10 07:29:39;;;;;;;7.20;2.88;;;27.60;90.50;;;;;;5063733;28;20032;-74
2022/08/10 07:32:06;;;;;;;6.60;2.97;;;27.80;90.50;;;;;;5059140;28;20036;-74
2022/08/10 07:34:34;;;;;;;5.85;2.55;;;28.10;88.10;;;;;;5043835;28;20043;-74
2022/08/10 07:37:09;;;;;;;6.45;2.90;;;29.00;88.00;;;;;;5043758;28;20040;-74
2022/08/10 07:39:42;;;;;;;5.13;2.70;;;29.50;86.30;;;;;;5049347;28;20085;-74
2022/08/10 07:42:10;;;;;;;4.00;2.30;;;28.50;87.00;;;;;;5062719;28;20040;-74
2022/08/10 07:44:38;;;;;;;6.53;2.63;;;28.00;89.00;;;;;;5057149;28;20282;-74
2022/08/10 07:47:07;;;;;;;4.47;2.28;;;28.40;87.90;;;;;;5049246;28;20035;-74
2022/08/10 07:49:38;;;;;;;5.35;2.88;;;28.90;86.60;;;;;;5065693;28;20021;-74
2022/08/10 07:52:09;;;;;;;5.25;2.15;;;29.60;85.70;;;;;;5047798;28;20423;-74
2022/08/10 07:54:44;;;;;;;8.00;3.03;;;29.00;84.60;;;;;;5067476;28;20052;-74
2022/08/10 07:57:16;;;;;;;5.15;2.70;;;27.30;89.30;;;;;;5065395;28;20032;-75
2022/08/10 07:59:44;;;;;;;5.88;3.10;;;26.30;90.40;;;;;;5056065;28;20029;-74
2022/08/10 08:02:34;;;;;;;4.50;2.80;;;25.90;90.70;;;;;;5052946;28;20036;-74
2022/08/10 08:05:03;;;;;;;5.35;2.70;;;25.40;90.20;;;;;;5055150;28;20036;-75
2022/08/10 08:07:31;;;;;;;4.78;2.13;;;25.50;91.20;;;;;;5050935;28;20048;-74
2022/08/10 08:09:58;;;;;;;6.20;2.85;;;25.70;90.80;;;;;;5049294;28;20057;-74
2022/08/10 08:12:24;;;;;;;5.45;2.80;;;25.70;90.20;;;;;;5047615;28;20108;-74
2022/08/10 08:14:52;;;;;;;5.00;3.08;;;25.60;91.00;;;;;;5055849;28;20044;-74
2022/08/10 08:17:20;;;;;;;4.32;2.75;;;25.40;90.70;;;;;;5063868;28;20024;-74
2022/08/10 08:19:49;;;;;;;3.92;2.33;;;25.40;91.00;;;;;;5065667;28;20075;-74
2022/08/10 08:22:18;;;;;;;4.85;2.70;;;25.60;91.40;;;;;;5057837;28;20029;-74
2022/08/10 08:24:45;;;;;;;4.88;2.70;;;25.60;90.70;;;;;;5059672;28;20144;-74
2022/08/10 08:27:15;;;;;;;3.65;2.38;;;26.70;90.10;;;;;;5054539;28;20047;-74
2022/08/10 08:29:43;;;;;;;4.53;2.70;;;28.30;87.70;;;;;;5057838;28;20486;-73
2022/08/10 08:32:10;;;;;;;5.13;2.40;;;29.60;85.20;;;;;;5056506;28;20550;-74
2022/08/10 08:34:37;;;;;;;4.60;2.47;;;29.30;85.30;;;;;;5057994;28;20036;-74
2022/08/10 08:37:04;;;;;;;6.20;2.40;;;29.80;85.50;;;;;;5066444;28;20033;-73
2022/08/10 08:39:35;;;;;;;4.55;2.90;;;29.90;84.90;;;;;;5048954;28;20041;-74
2022/08/10 08:42:17;;;;;;;5.00;2.60;;;29.40;86.40;;;;;;5047629;28;20037;-74
2022/08/10 08:45:16;;;;;;;6.50;2.67;;;29.80;87.00;;;;;;5051622;28;20470;-73
2022/08/10 08:48:07;;;;;;;5.40;2.95;;;29.50;85.90;;;;;;5054790;28;20043;-73
2022/08/10 08:50:56;;;;;;;4.47;2.45;;;28.80;88.20;;;;;;5060826;28;20146;-73
2022/08/10 08:53:27;;;;;;;5.25;2.30;;;27.90;87.20;;;;;;5057401;28;20056;-74
2022/08/10 08:56:15;;;;;;;6.68;2.80;;;27.90;90.20;;;;;;5052350;28;20029;-73
2022/08/10 08:58:58;;;;;;;4.85;2.80;;;27.30;90.20;;;;;;5048349;28;20065;-74
2022/08/10 09:01:48;;;;;;;8.27;2.75;;;27.10;90.10;;;;;;5049389;28;20108;-74
2022/08/10 09:04:36;;;;;;;6.68;2.97;;;27.20;89.50;;;;;;5062184;28;20510;-74
2022/08/10 09:07:23;;;;;;;4.32;2.58;;;27.10;87.50;;;;;;5057365;28;20043;-74
2022/08/10 09:10:03;;;;;;;3.05;2.03;;;27.10;88.30;;;;;;5055643;28;20187;-74
2022/08/10 09:13:05;;;;;;;5.82;2.20;;;27.00;89.20;;;;;;5045905;28;20083;-74
2022/08/10 09:15:47;;;;;;;6.53;2.90;;;27.40;87.50;;;;;;5046049;28;20403;-74
2022/08/10 09:18:22;;;;;;;4.00;2.25;;;27.10;89.10;;;;;;5050374;28;20032;-75
2022/08/10 09:21:08;;;;;;;8.55;2.60;;;27.30;89.20;;;;;;5065803;28;20060;-74
2022/08/10 09:23:57;;;;;;;8.10;3.35;;;27.70;89.60;;;;;;5064410;28;20036;-74
2022/08/10 09:26:45;;;;;;;3.78;2.25;;;27.70;87.10;;;;;;5064750;28;20039;-74
2022/08/10 09:29:18;;;;;;;5.43;2.95;;;27.70;88.10;;;;;;5063958;28;20040;-73
2022/08/10 09:31:47;;;;;;;9.07;3.08;;;27.70;88.40;;;;;;5054078;28;20076;-73
2022/08/10 09:34:18;;;;;;;7.40;2.28;;;27.60;84.50;;;;;;5051278;28;20265;-73
2022/08/10 09:37:03;;;;;;;8.13;3.05;;;27.70;84.70;;;;;;5065102;28;20613;-74
2022/08/10 09:39:53;;;;;;;5.97;2.85;;;27.80;88.40;;;;;;5064691;28;20071;-74
2022/08/10 09:42:41;;;;;;;5.85;2.72;;;27.60;87.40;;;;;;5056469;28;20024;-73
2022/08/10 09:45:27;;;;;;;5.15;2.55;;;27.60;87.80;;;;;;5057968;28;20568;-74
2022/08/10 09:48:12;;;;;;;5.60;2.50;;;27.40;86.80;;;;;;5065008;28;20036;-74
2022/08/10 09:51:05;;;;;;;4.68;2.28;;;27.40;86.00;;;;;;5058660;28;20035;-74
2022/08/10 09:53:43;;;;;;;10.40;2.50;;;27.70;86.60;;;;;;5053557;28;20082;-74
2022/08/10 09:56:23;;;;;;;4.68;2.60;;;27.90;86.70;;;;;;5064095;28;20115;-73
2022/08/10 09:59:10;;;;;;;6.13;2.33;;;28.20;86.90;;;;;;5065776;28;20429;-73
2022/08/10 10:01:43;;;;;;;5.05;2.17;;;28.10;84.00;;;;;;5068536;28;20062;-73
2022/08/10 10:04:24;;;;;;;7.95;2.00;;;28.30;83.50;;;;;;5056850;28;20387;-74
2022/08/10 10:06:57;;;;;;;3.35;1.92;;;28.40;84.80;;;;;;5063542;28;20032;-74
2022/08/10 10:09:38;;;;;;;4.38;2.17;;;28.50;87.10;;;;;;5052467;28;20487;-73
2022/08/10 10:12:34;;;;;;;4.43;2.00;;;28.70;87.30;;;;;;5048385;28;20110;-74
2022/08/10 10:15:27;;;;;;;4.72;2.45;;;28.80;85.50;;;;;;5061301;28;20040;-73
2022/08/10 10:18:07;;;;;;;5.70;2.07;;;28.80;85.00;;;;;;5067612;28;20035;-73
2022/08/10 10:21:04;;;;;;;7.60;2.10;;;28.70;87.00;;;;;;5067826;28;20036;-74
2022/08/10 10:23:48;;;;;;;6.10;2.10;;;28.80;84.90;;;;;;5048607;28;20033;-73
2022/08/10 10:26:24;;;;;;;4.40;1.77;;;29.00;84.80;;;;;;5064558;28;20036;-74
2022/08/10 10:29:07;;;;;;;4.25;2.00;;;29.00;83.10;;;;;;5058465;28;20028;-74
2022/08/10 10:32:02;;;;;;;4.85;2.28;;;29.20;83.80;;;;;;5064289;28;20116;-73
2022/08/10 10:34:48;;;;;;;4.22;2.45;;;29.00;84.20;;;;;;5000672;28;20136;-74
2022/08/10 10:37:16;;;;;;;4.93;1.88;;;29.00;82.00;;;;;;5058365;28;20079;-73
2022/08/10 10:39:45;;;;;;;4.32;2.00;;;29.20;83.40;;;;;;5061481;28;20040;-74
2022/08/10 10:42:29;;;;;;;5.32;2.28;;;29.40;83.50;;;;;;5048068;28;20029;-74
2022/08/10 10:45:41;;;;;;;7.15;2.40;;;29.30;83.10;;;;;;5056275;28;20029;-74
2022/08/10 10:48:38;;;;;;;5.35;2.10;;;29.40;81.90;;;;;;4989249;28;20049;-73
2022/08/10 10:51:25;;;;;;;3.78;2.25;;;29.90;82.00;;;;;;5047696;28;20057;-75
2022/08/10 10:54:12;;;;;;;3.75;2.10;;;30.00;84.10;;;;;;5050895;28;20033;-75
2022/08/10 10:57:15;;;;;;;4.65;2.42;;;29.80;81.30;;;;;;5063041;28;20036;-75
2022/08/10 11:00:00;;;;;;;5.00;2.03;;;29.80;82.40;;;;;;5044161;28;20644;-75
2022/08/10 11:02:31;;;;;;;4.55;2.20;;;30.00;83.60;;;;;;5059992;28;20044;-75
2022/08/10 11:05:15;;;;;;;6.68;2.45;;;30.10;82.90;;;;;;5063350;28;20051;-75
2022/08/10 11:07:52;;;;;;;4.20;2.55;;;29.70;80.00;;;;;;5045828;28;20032;-75
2022/08/10 11:10:24;;;;;;;4.22;2.00;;;29.90;81.50;;;;;;5024100;28;20041;-76
2022/08/10 11:13:05;;;;;;;4.03;2.67;;;29.90;80.90;;;;;;5024563;28;20517;-75
2022/08/10 11:15:59;;;;;;;3.72;2.15;;;29.90;81.60;;;;;;5025390;28;20402;-75
2022/08/10 11:18:33;;;;;;;4.80;2.00;;;30.10;81.70;;;;;;5035459;28;20029;-75
2022/08/10 11:21:28;;;;;;;4.68;2.47;;;30.40;83.20;;;;;;5041297;28;20032;-74
2022/08/10 11:24:19;;;;;;;4.45;2.45;;;30.80;83.80;;;;;;5032048;28;20080;-73
2022/08/10 11:26:54;;;;;;;6.40;2.53;;;30.60;80.20;;;;;;5028906;28;20133;-73
2022/08/10 11:29:31;;;;;;;4.28;2.13;;;30.40;83.10;;;;;;5036267;28;20034;-73
2022/08/10 11:32:15;;;;;;;4.75;2.60;;;30.80;80.60;;;;;;5028599;28;20024;-73
2022/08/10 11:35:02;;;;;;;4.25;1.98;;;30.60;82.20;;;;;;5031832;28;20033;-74
2022/08/10 11:37:46;;;;;;;7.47;2.22;;;30.50;80.80;;;;;;5023728;28;20116;-74
2022/08/10 11:40:18;;;;;;;6.00;2.15;;;30.40;80.70;;;;;;5032793;28;20680;-74
2022/08/10 11:43:21;;;;;;;5.38;2.28;;;30.70;79.50;;;;;;5036176;28;20040;-74
2022/08/10 11:45:54;;;;;;;3.50;2.15;;;30.50;81.30;;;;;;5027406;28;20064;-74
2022/08/10 11:48:29;;;;;;;;;;;30.60;80.20;;;;;;5012706;28;20434;-74
2022/08/10 11:51:08;;;;;;;5.90;2.47;;;30.70;81.10;;;;;;5030228;28;19924;-74
2022/08/10 11:53:48;;;;;;;7.30;3.08;;;30.80;81.90;;;;;;5037642;28;20487;-75
2022/08/10 11:56:28;;;;;;;3.90;2.10;;;30.80;83.30;;;;;;5038132;28;20033;-75
2022/08/10 12:01:40;;;;;;;4.95;2.70;;;30.70;80.30;;;;;;5024694;28;20411;-75
2022/08/10 12:04:06;;;;;;;3.10;2.00;;;30.70;80.30;;;;;;5034123;28;20033;-75
2022/08/10 12:06:35;;;;;;;4.90;2.63;;;30.90;82.70;;;;;;5025926;28;20048;-75
2022/08/10 12:09:03;;;;;;;4.18;2.60;;;30.90;80.80;;;;;;5034528;28;20033;-75
2022/08/10 12:11:29;;;;;;;6.85;2.42;;;31.10;82.00;;;;;;5047644;28;20027;-75
2022/08/10 12:14:11;;;;;;;3.97;2.05;;;31.10;80.80;;;;;;5057878;28;20548;-74
2022/08/10 12:16:40;;;;;;;3.85;2.50;;;31.10;79.40;;;;;;5044949;28;20054;-73
2022/08/10 12:19:25;;;;;;;6.20;2.50;;;31.20;80.80;;;;;;5047881;28;20602;-72
2022/08/10 12:21:58;;;;;;;5.65;2.47;;;31.30;79.70;;;;;;5044816;28;20081;-73
2022/08/10 12:24:41;;;;;;;4.55;2.20;;;31.30;81.30;;;;;;5055769;28;20082;-73
2022/08/10 12:27:20;;;;;;;3.78;2.40;;;31.00;78.00;;;;;;5045712;28;20048;-73
2022/08/10 12:30:06;;;;;;;7.90;2.65;;;31.10;81.50;;;;;;5058780;28;20390;-73
2022/08/10 12:32:52;;;;;;;3.85;2.50;;;31.00;78.80;;;;;;5052654;28;20112;-74
2022/08/10 12:35:29;;;;;;;6.03;2.20;;;31.00;80.10;;;;;;5053020;28;20039;-74
2022/08/10 12:38:25;;;;;;;3.30;2.17;;;31.30;79.70;;;;;;5053893;28;20021;-73
2022/08/10 12:40:56;;;;;;;5.63;2.58;;;31.50;79.60;;;;;;5062046;28;20053;-74
2022/08/10 12:43:31;;;;;;;3.85;2.42;;;31.60;79.70;;;;;;5070231;28;20057;-74
2022/08/10 12:46:33;;;;;;;3.85;2.15;;;31.60;78.10;;;;;;5071285;28;20048;-75
2022/08/10 12:49:04;;;;;;;7.55;2.67;;;31.60;80.20;;;;;;5052677;28;20085;-74
2022/08/10 12:51:32;;;;;;;7.32;3.45;;;31.70;80.20;;;;;;5067754;28;20040;-74
2022/08/10 12:54:10;;;;;;;5.18;2.50;;;31.60;78.30;;;;;;5058194;28;20112;-74
2022/08/10 12:56:48;;;;;;;4.90;2.47;;;31.50;79.60;;;;;;5066995;28;20111;-74
2022/08/10 12:59:15;;;;;;;4.65;2.83;;;31.60;81.80;;;;;;5058257;28;20033;-74
2022/08/10 13:01:43;;;;;;;4.43;2.03;;;31.50;78.90;;;;;;5060241;28;20099;-73
2022/08/10 13:04:14;;;;;;;3.80;2.50;;;31.50;78.60;;;;;;5059464;28;20036;-74
2022/08/10 13:06:45;;;;;;;7.20;2.47;;;31.50;79.00;;;;;;5053657;28;20024;-73
2022/08/10 13:09:12;;;;;;;5.38;2.42;;;31.80;80.20;;;;;;5057770;28;20060;-73
2022/08/10 13:12:04;;;;;;;5.40;1.95;;;31.60;78.80;;;;;;5049747;28;20107;-73
2022/08/10 13:14:45;;;;;;;4.82;2.50;;;31.50;79.10;;;;;;5029141;28;20135;-75
2022/08/10 13:17:13;;;;;;;4.28;2.92;;;31.60;79.10;;;;;;5037319;28;20030;-75
2022/08/10 13:19:44;;;;;;;3.13;2.05;;;31.60;78.40;;;;;;5029757;28;20041;-76
2022/08/10 13:22:14;;;;;;;6.40;2.55;;;31.50;78.00;;;;;;5037017;28;20037;-75
2022/08/10 13:24:47;;;;;;;3.60;2.40;;;31.40;77.90;;;;;;5030043;28;20025;-75
2022/08/10 13:27:15;;;;;;;4.47;2.70;;;31.50;77.50;;;;;;5043193;28;20037;-76